Time;durP1;ratioP1;P1;durP2;ratioP2;P2;SDS_P1;SDS_P2;PMS_P1;PMS_P2;Temp;Humidity;BMP_temperature;BMP_pressure;BME280_temperature;BME280_humidity;BME280_pressure;Samples;Min_cycle;Max_cycle;Signal;HPM_P1;HPM_P2
2024/04/06 00:01:32;;;;;;;4.80;1.88;;;;;;;12.58;86.54;98571.69;4990703;28;20025;-84
2024/04/06 00:03:58;;;;;;;2.17;1.70;;;;;;;12.32;87.33;98542.50;4990176;28;20034;-85
2024/04/06 00:06:23;;;;;;;1.88;1.58;;;;;;;12.44;86.60;98559.91;4973475;28;20061;-85
2024/04/06 00:08:50;;;;;;;4.80;2.15;;;;;;;12.46;87.34;98573.03;4972193;28;20108;-84
2024/04/06 00:11:17;;;;;;;2.03;1.67;;;;;;;12.42;87.39;98562.06;4972252;28;20405;-85
2024/04/06 00:13:42;;;;;;;3.22;1.92;;;;;;;12.45;87.01;98552.69;4987737;28;20611;-85
2024/04/06 00:16:07;;;;;;;3.40;2.20;;;;;;;12.54;87.88;98567.13;4974260;28;20105;-85
2024/04/06 00:18:34;;;;;;;5.45;2.75;;;;;;;12.49;87.63;98564.47;5006938;28;20108;-85
2024/04/06 00:21:00;;;;;;;2.13;1.90;;;;;;;12.53;87.30;98565.53;4992279;28;20121;-85
2024/04/06 00:23:27;;;;;;;4.63;1.95;;;;;;;12.45;87.75;98566.06;5007446;28;20034;-85
2024/04/06 00:25:52;;;;;;;4.80;2.58;;;;;;;12.28;87.57;98528.03;4990528;28;20383;-85
2024/04/06 00:28:18;;;;;;;2.65;1.85;;;;;;;12.49;88.33;98564.47;4990700;28;20041;-85
2024/04/06 00:30:43;;;;;;;3.45;3.13;;;;;;;12.50;87.39;98555.34;4990582;28;20058;-85
2024/04/06 00:33:08;;;;;;;5.78;2.05;;;;;;;12.53;87.48;98569.03;4961389;28;20030;-84
2024/04/06 00:35:34;;;;;;;4.20;2.30;;;;;;;12.38;87.92;98552.97;5007574;28;20042;-85
2024/04/06 00:37:59;;;;;;;3.60;2.20;;;;;;;12.41;87.29;98541.69;4987586;28;20026;-86
2024/04/06 00:40:25;;;;;;;4.28;2.08;;;;;;;12.58;87.27;98578.94;4973147;28;20159;-85
2024/04/06 00:42:50;;;;;;;4.53;2.13;;;;;;;12.41;87.81;98557.75;4969506;28;20026;-84
2024/04/06 00:45:15;;;;;;;4.25;1.80;;;;;;;12.65;87.24;98576.75;4984250;28;20041;-85
2024/04/06 00:47:41;;;;;;;1.90;1.65;;;;;;;12.39;87.61;98548.38;4988555;28;20032;-84
2024/04/06 00:50:09;;;;;;;5.00;1.90;;;;;;;12.49;88.13;98580.53;4970056;28;20042;-85
2024/04/06 00:52:34;;;;;;;2.38;2.15;;;;;;;12.56;88.10;98576.50;4990044;28;20034;-85
2024/04/06 00:55:00;;;;;;;4.13;1.67;;;;;;;12.56;87.81;98575.69;5006089;28;20061;-84
2024/04/06 00:57:27;;;;;;;2.90;1.70;;;;;;;12.46;88.48;98565.00;5007062;28;20042;-84
2024/04/06 00:59:52;;;;;;;11.57;3.00;;;;;;;12.51;88.52;98567.69;5006908;28;20018;-86
2024/04/06 01:02:18;;;;;;;4.18;2.00;;;;;;;12.51;88.53;98573.84;4990158;28;20183;-85
2024/04/06 01:04:43;;;;;;;5.38;2.33;;;;;;;12.41;88.44;98554.28;5007052;28;20045;-85
2024/04/06 01:07:08;;;;;;;2.90;2.00;;;;;;;12.43;89.00;98562.84;5004648;28;20029;-86
2024/04/06 01:09:34;;;;;;;4.15;2.30;;;;;;;12.39;88.90;98554.53;4971415;28;20033;-85
2024/04/06 01:11:59;;;;;;;4.07;1.95;;;;;;;12.61;88.65;98573.03;4989425;28;20029;-85
2024/04/06 01:14:24;;;;;;;2.30;2.10;;;;;;;12.56;88.39;98576.50;4980782;28;20033;-85
2024/04/06 01:16:50;;;;;;;4.72;1.95;;;;;;;12.61;88.30;98579.19;4971504;28;20409;-85
2024/04/06 01:19:15;;;;;;;2.80;1.70;;;;;;;12.38;88.70;98552.97;4967118;28;20026;-86
2024/04/06 01:21:40;;;;;;;4.97;2.15;;;;;;;12.63;88.43;98589.63;5003216;28;20041;-85
2024/04/06 01:24:22;;;;;;;3.10;2.00;;;;;;;12.59;88.66;98592.03;4979587;28;20033;-85
2024/04/06 01:26:48;;;;;;;3.65;1.67;;;;;;;12.62;88.33;98578.09;4979680;28;20052;-85
2024/04/06 01:29:14;;;;;;;6.50;1.98;;;;;;;12.72;87.64;98598.72;5013969;28;20026;-85
2024/04/06 01:31:39;;;;;;;3.67;2.30;;;;;;;12.64;88.34;98589.38;4996505;28;20109;-85
2024/04/06 01:34:08;;;;;;;3.08;2.00;;;;;;;12.29;88.71;98545.72;4976034;28;20128;-85
2024/04/06 01:36:33;;;;;;;7.00;2.03;;;;;;;12.62;88.37;98591.47;5010603;28;20037;-85
2024/04/06 01:38:59;;;;;;;2.83;2.05;;;;;;;12.72;88.29;98598.72;4995442;28;20494;-85
2024/04/06 01:41:24;;;;;;;2.65;2.13;;;;;;;12.49;88.35;98557.22;5011231;28;20135;-85
2024/04/06 01:43:49;;;;;;;5.57;2.10;;;;;;;12.62;88.22;98591.47;4977716;28;20057;-85
2024/04/06 01:46:15;;;;;;;3.88;1.92;;;;;;;12.56;88.38;98587.22;5011339;28;20060;-85
2024/04/06 01:48:40;;;;;;;3.67;2.05;;;;;;;12.58;88.15;98579.72;4989859;28;20447;-84
2024/04/06 01:51:06;;;;;;;5.57;1.95;;;;;;;12.61;89.22;98594.44;5016770;28;20477;-85
2024/04/06 01:53:32;;;;;;;4.95;2.05;;;;;;;12.67;88.35;98590.69;5011244;28;20432;-85
2024/04/06 01:55:57;;;;;;;2.85;1.90;;;;;;;12.66;88.90;98589.91;4996488;28;20109;-85
2024/04/06 01:58:23;;;;;;;2.72;1.98;;;;;;;12.59;89.74;98593.91;4998555;28;20053;-85
2024/04/06 02:00:48;;;;;;;2.03;1.45;;;;;;;12.55;89.02;98571.41;5013122;28;20034;-84
2024/04/06 02:03:13;;;;;;;2.22;2.03;;;;;;;12.79;88.05;98585.88;4998414;28;20062;-85
2024/04/06 02:05:39;;;;;;;2.78;1.98;;;;;;;12.57;89.17;98580.78;4995111;28;20030;-85
2024/04/06 02:08:04;;;;;;;3.92;1.70;;;;;;;12.52;90.27;98579.97;4996352;28;20478;-85
2024/04/06 02:10:30;;;;;;;4.53;2.25;;;;;;;12.62;89.76;98569.28;5012769;28;20448;-85
2024/04/06 02:12:55;;;;;;;3.45;1.40;;;;;;;12.63;88.71;98579.72;4965075;28;20034;-85
2024/04/06 02:15:21;;;;;;;7.32;2.65;;;;;;;12.44;89.03;98570.63;4980889;28;20041;-84
2024/04/06 02:17:47;;;;;;;1.58;1.48;;;;;;;12.60;88.70;98582.13;4983325;28;20124;-84
2024/04/06 02:20:12;;;;;;;4.18;1.63;;;;;;;12.19;88.48;98519.75;4992837;28;20114;-86
2024/04/06 02:22:37;;;;;;;6.53;1.63;;;;;;;12.49;88.55;98565.25;5006807;28;20053;-85
2024/04/06 02:25:03;;;;;;;1.88;1.45;;;;;;;12.77;88.11;98593.38;4998564;28;20030;-85
2024/04/06 02:27:29;;;;;;;1.30;1.20;;;;;;;12.67;88.00;98590.69;5001723;28;20079;-85
2024/04/06 02:29:54;;;;;;;3.25;1.80;;;;;;;12.62;88.22;98583.44;5003183;28;20041;-85
2024/04/06 02:32:19;;;;;;;1.73;1.33;;;;;;;12.33;86.98;98569.00;4985772;28;20394;-84
2024/04/06 02:34:45;;;;;;;1.77;1.27;;;;;;;12.54;88.43;98588.53;4995621;28;20030;-84
2024/04/06 02:37:10;;;;;;;1.75;1.65;;;;;;;12.43;87.43;98602.97;4980124;28;20064;-85
2024/04/06 02:39:36;;;;;;;4.95;1.38;;;;;;;12.24;87.47;98594.66;5002141;28;20200;-85
2024/04/06 02:42:01;;;;;;;4.38;2.00;;;;;;;12.34;87.94;98570.59;5014887;28;20033;-86
2024/04/06 02:44:26;;;;;;;1.90;1.20;;;;;;;12.33;87.73;98603.78;4984794;28;20065;-85
2024/04/06 02:46:51;;;;;;;4.28;1.23;;;;;;;12.43;87.29;98578.91;4996281;28;20398;-86
2024/04/06 02:49:17;;;;;;;1.90;1.58;;;;;;;12.42;87.81;98606.75;4992256;28;20037;-84
2024/04/06 02:51:42;;;;;;;5.25;1.80;;;;;;;12.47;87.65;98614.78;4997377;28;21473;-85
2024/04/06 02:54:08;;;;;;;4.55;2.13;;;;;;;12.26;87.65;98586.38;4996263;28;20454;-85
2024/04/06 02:56:33;;;;;;;2.55;1.77;;;;;;;12.33;87.65;98592.28;4978712;28;20034;-84
2024/04/06 02:58:58;;;;;;;5.22;1.60;;;;;;;12.46;87.61;98600.59;4997301;28;20026;-85
2024/04/06 03:01:24;;;;;;;3.20;1.98;;;;;;;12.60;87.80;98614.28;4978967;28;21777;-85
2024/04/06 03:03:50;;;;;;;3.55;1.40;;;;;;;12.35;88.93;98601.66;4997531;28;20057;-85
2024/04/06 03:06:16;;;;;;;2.33;1.40;;;;;;;12.23;89.52;98581.56;4992448;28;20203;-84
2024/04/06 03:08:42;;;;;;;2.65;1.30;;;;;;;12.57;87.97;98596.03;4998656;28;20121;-86
2024/04/06 03:11:07;;;;;;;3.72;1.85;;;;;;;12.52;87.76;98610.22;4995182;28;20771;-84
2024/04/06 03:13:33;;;;;;;1.92;1.17;;;;;;;12.49;87.42;98591.22;5010727;28;20030;-85
2024/04/06 03:15:58;;;;;;;5.53;1.92;;;;;;;12.23;88.74;98602.97;4995589;28;20045;-85
2024/04/06 03:18:24;;;;;;;3.35;1.30;;;;;;;12.25;88.16;98587.47;4998627;28;20053;-84
2024/04/06 03:20:49;;;;;;;2.47;1.40;;;;;;;12.40;87.93;98598.19;4991262;28;20076;-86
2024/04/06 03:23:14;;;;;;;2.88;1.60;;;;;;;12.39;87.30;98596.56;4988817;28;20034;-85
2024/04/06 03:25:40;;;;;;;2.38;1.17;;;;;;;12.25;88.26;98576.75;4999113;28;20033;-84
2024/04/06 03:28:05;;;;;;;3.72;1.60;;;;;;;12.26;89.05;98594.41;4992954;28;20042;-84
2024/04/06 03:30:32;;;;;;;3.97;1.70;;;;;;;12.29;89.40;98601.91;4994390;28;20042;-85
2024/04/06 03:32:57;;;;;;;1.90;1.30;;;;;;;12.12;88.98;98579.94;5007124;28;20386;-84
2024/04/06 03:35:22;;;;;;;2.80;1.40;;;;;;;12.11;88.47;98578.31;4988309;28;20034;-85
2024/04/06 03:37:48;;;;;;;3.10;1.40;;;;;;;12.22;88.61;98620.91;5010885;28;20036;-85
2024/04/06 03:40:15;;;;;;;2.65;1.45;;;;;;;12.13;88.49;98611.78;4994219;28;20506;-85
2024/04/06 03:42:40;;;;;;;4.43;1.48;;;;;;;12.22;88.52;98636.94;5010483;28;20405;-85
2024/04/06 03:45:06;;;;;;;2.88;1.60;;;;;;;12.23;88.77;98632.41;4990382;28;20155;-85
2024/04/06 03:47:32;;;;;;;5.28;2.42;;;;;;;12.11;88.81;98616.59;4999209;28;20072;-85
2024/04/06 03:49:57;;;;;;;3.67;1.75;;;;;;;12.24;88.43;98647.38;5008502;28;20033;-84
2024/04/06 03:52:24;;;;;;;3.63;1.50;;;;;;;12.10;88.23;98619.53;5008612;28;20038;-85
2024/04/06 03:54:49;;;;;;;2.80;1.33;;;;;;;12.19;87.91;98629.44;4992983;28;20061;-84
2024/04/06 03:57:15;;;;;;;2.88;1.23;;;;;;;12.19;88.32;98636.69;5007546;28;20118;-85
2024/04/06 03:59:40;;;;;;;2.05;1.50;;;;;;;12.23;87.95;98625.16;5012384;28;20096;-86
2024/04/06 04:02:05;;;;;;;4.15;1.70;;;;;;;11.98;87.98;98596.50;4974800;28;20669;-85
2024/04/06 04:04:31;;;;;;;5.32;1.65;;;;;;;12.08;88.70;98627.81;4974608;28;20056;-85
2024/04/06 04:06:56;;;;;;;2.22;1.20;;;;;;;11.92;89.96;98640.34;4979503;28;20488;-85
2024/04/06 04:09:21;;;;;;;3.15;1.77;;;;;;;11.76;92.02;98632.50;5013204;28;20053;-85
2024/04/06 04:11:47;;;;;;;4.25;1.65;;;;;;;11.64;93.02;98632.69;5005275;28;20057;-86
2024/04/06 04:14:12;;;;;;;5.10;1.65;;;;;;;11.83;91.14;98633.88;5008947;28;20030;-86
2024/04/06 04:16:38;;;;;;;2.75;1.65;;;;;;;11.99;90.06;98632.06;4998419;28;20095;-85
2024/04/06 04:19:03;;;;;;;2.42;1.10;;;;;;;11.56;88.83;98525.44;5013243;28;20041;-85
2024/04/06 04:21:28;;;;;;;1.50;1.40;;;;;;;12.24;89.07;98636.69;4978287;28;20053;-85
2024/04/06 04:23:57;;;;;;;2.47;1.00;;;;;;;12.16;88.93;98613.13;4973009;28;20676;-85
2024/04/06 04:26:22;;;;;;;4.80;1.40;;;;;;;12.21;88.62;98629.19;4960820;28;20057;-85
2024/04/06 04:28:47;;;;;;;2.25;1.55;;;;;;;12.15;88.71;98622.19;4980432;28;20042;-86
2024/04/06 04:31:15;;;;;;;2.53;1.45;;;;;;;12.04;88.77;98616.84;4977527;28;20032;-86
2024/04/06 04:33:41;;;;;;;1.27;1.10;;;;;;;12.12;89.08;98630.78;5011672;28;20363;-86
2024/04/06 04:36:08;;;;;;;6.13;1.40;;;;;;;12.18;89.12;98627.84;5011434;28;20045;-86
2024/04/06 04:38:33;;;;;;;2.92;1.67;;;;;;;12.13;88.72;98629.69;5011008;28;20034;-85
2024/04/06 04:40:59;;;;;;;2.58;1.17;;;;;;;11.56;89.19;98590.41;4989511;28;20076;-87
2024/04/06 04:43:24;;;;;;;3.47;1.73;;;;;;;11.21;90.73;98548.31;4996823;28;20113;-85
2024/04/06 04:45:50;;;;;;;3.70;1.50;;;;;;;11.56;90.02;98609.13;5009195;28;20036;-85
2024/04/06 04:48:15;;;;;;;1.83;1.40;;;;;;;11.89;89.72;98635.50;5011543;28;20113;-85
2024/04/06 04:50:41;;;;;;;5.65;2.17;;;;;;;11.94;89.45;98632.06;5006274;28;20045;-86
2024/04/06 04:53:06;;;;;;;2.25;1.77;;;;;;;11.86;88.76;98619.97;5007633;28;20037;-84
2024/04/06 04:55:32;;;;;;;2.13;1.77;;;;;;;11.54;89.30;98631.81;4990174;28;20112;-85
2024/04/06 04:57:57;;;;;;;1.92;1.60;;;;;;;11.19;92.61;98613.72;5008864;28;20037;-84
2024/04/06 05:00:24;;;;;;;2.60;1.58;;;;;;;11.52;89.78;98618.72;4994612;28;20461;-85
2024/04/06 05:02:50;;;;;;;1.70;1.60;;;;;;;11.84;89.18;98638.16;4976777;28;20034;-84
2024/04/06 05:05:15;;;;;;;4.25;1.50;;;;;;;11.93;88.59;98657.97;4996175;28;20092;-85
2024/04/06 05:07:41;;;;;;;2.03;1.40;;;;;;;11.47;91.09;98628.56;4990721;28;20034;-84
2024/04/06 05:10:09;;;;;;;2.38;1.60;;;;;;;11.58;89.70;98598.16;5007556;28;20030;-86
2024/04/06 05:12:35;;;;;;;3.38;1.90;;;;;;;11.69;89.26;98613.22;4995468;28;20030;-86
2024/04/06 05:15:00;;;;;;;2.75;1.83;;;;;;;11.51;89.73;98627.81;4991165;28;20041;-86
2024/04/06 05:17:26;;;;;;;1.65;1.40;;;;;;;11.29;92.87;98645.88;4992437;28;20030;-83
2024/04/06 05:19:51;;;;;;;2.28;1.60;;;;;;;11.40;92.51;98660.09;5007217;28;20513;-83
2024/04/06 05:22:17;;;;;;;2.00;1.70;;;;;;;11.46;92.36;98664.41;5006721;28;20501;-84
2024/04/06 05:24:42;;;;;;;4.88;1.65;;;;;;;11.29;93.23;98669.91;4998006;28;20038;-85
2024/04/06 05:27:07;;;;;;;2.20;1.92;;;;;;;11.52;91.39;98679.41;4959977;28;20456;-85
2024/04/06 05:29:33;;;;;;;2.63;1.52;;;;;;;11.52;90.42;98648.13;5005810;28;20038;-85
2024/04/06 05:31:58;;;;;;;7.38;2.65;;;;;;;11.37;93.22;98677.44;5006258;28;20396;-85
2024/04/06 05:34:24;;;;;;;1.88;1.45;;;;;;;11.10;95.38;98652.66;4989488;28;20490;-85
2024/04/06 05:36:51;;;;;;;2.63;1.88;;;;;;;11.86;91.08;98684.16;4979707;28;20046;-86
2024/04/06 05:39:17;;;;;;;2.22;2.00;;;;;;;11.64;90.49;98643.38;4991634;28;20046;-85
2024/04/06 05:41:42;;;;;;;4.40;1.83;;;;;;;11.79;90.72;98672.09;4974651;28;20081;-84
2024/04/06 05:44:07;;;;;;;4.45;2.28;;;;;;;11.61;94.21;98680.53;4964471;28;20045;-84
2024/04/06 05:46:33;;;;;;;2.67;2.00;;;;;;;11.45;95.83;98684.97;5010502;28;20030;-84
2024/04/06 05:49:00;;;;;;;4.43;2.53;;;;;;;11.08;98.39;98654.78;4978683;28;20034;-85
2024/04/06 05:51:27;;;;;;;4.47;2.58;;;;;;;11.27;100.00;98701.41;5008755;28;20026;-85
2024/04/06 05:53:53;;;;;;;3.85;2.15;;;;;;;11.26;100.00;98697.94;5010478;28;20032;-85
2024/04/06 05:56:18;;;;;;;5.85;2.40;;;;;;;11.14;100.00;98675.94;4997189;28;20033;-85
2024/04/06 05:58:43;;;;;;;2.53;1.70;;;;;;;11.25;100.00;98671.47;4994253;28;20030;-85
2024/04/06 06:01:09;;;;;;;2.33;1.88;;;;;;;11.25;100.00;98672.28;4976516;28;20041;-84
2024/04/06 06:03:34;;;;;;;2.65;1.95;;;;;;;10.92;100.00;98621.81;4991874;28;20082;-85
2024/04/06 06:06:00;;;;;;;4.43;2.03;;;;;;;11.49;99.90;98706.66;5001403;28;20077;-85
2024/04/06 06:08:25;;;;;;;3.58;2.22;;;;;;;11.62;99.54;98707.00;5013936;28;20026;-85
2024/04/06 06:10:50;;;;;;;3.20;2.20;;;;;;;11.60;97.35;98671.69;5000635;28;20030;-85
2024/04/06 06:13:16;;;;;;;4.60;2.30;;;;;;;11.85;96.86;98690.59;4994207;28;20042;-86
2024/04/06 06:15:41;;;;;;;2.28;1.75;;;;;;;11.91;96.21;98691.41;4979061;28;20463;-85
2024/04/06 06:18:07;;;;;;;7.40;2.53;;;;;;;11.98;95.36;98702.69;4994175;28;20042;-84
2024/04/06 06:20:32;;;;;;;3.70;2.03;;;;;;;11.82;96.22;98679.59;4978372;28;20128;-85
2024/04/06 06:22:58;;;;;;;1.83;1.58;;;;;;;12.23;91.87;98702.75;5012471;28;20486;-86
2024/04/06 06:25:24;;;;;;;2.53;1.60;;;;;;;12.15;90.90;98681.88;4979784;28;20065;-85
2024/04/06 06:27:50;;;;;;;3.33;2.13;;;;;;;12.11;91.70;98690.69;4996872;28;20041;-85
2024/04/06 06:30:15;;;;;;;3.67;1.75;;;;;;;12.17;93.03;98713.72;4997334;28;20033;-85
2024/04/06 06:32:41;;;;;;;4.38;1.92;;;;;;;12.41;90.59;98702.28;5013202;28;20398;-85
2024/04/06 06:35:06;;;;;;;2.92;2.00;;;;;;;12.23;93.78;98705.44;4985837;28;20034;-86
2024/04/06 06:37:34;;;;;;;2.38;1.58;;;;;;;12.27;91.18;98674.44;5011420;28;20367;-85
2024/04/06 06:39:59;;;;;;;4.90;1.70;;;;;;;12.27;98.56;98717.25;4994346;28;20022;-84
2024/04/06 06:42:25;;;;;;;5.78;2.20;;;;;;;12.40;93.03;98702.56;5014181;28;20050;-84
2024/04/06 06:44:50;;;;;;;6.35;1.95;;;;;;;12.23;99.62;98704.66;4996655;28;20097;-81
2024/04/06 06:47:15;;;;;;;11.02;2.55;;;;;;;12.50;97.95;98716.78;4993845;28;20061;-81
2024/04/06 06:49:41;;;;;;;14.52;3.20;;;;;;;12.62;96.47;98703.16;4974450;28;20420;-82
2024/04/06 06:52:07;;;;;;;4.20;2.42;;;;;;;12.47;98.76;98697.78;5003192;28;20029;-82
2024/04/06 06:54:32;;;;;;;2.88;2.20;;;;;;;12.68;97.32;98708.25;4986071;28;20034;-82
2024/04/06 06:56:58;;;;;;;4.47;2.42;;;;;;;12.74;96.40;98703.72;4979737;28;20030;-81
2024/04/06 06:59:24;;;;;;;3.97;1.90;;;;;;;12.99;94.88;98714.47;4996282;28;20029;-81
2024/04/06 07:01:49;;;;;;;2.72;1.90;;;;;;;12.78;98.49;98704.78;5002162;28;20034;-82
2024/04/06 07:04:15;;;;;;;3.58;2.45;;;;;;;12.89;95.66;98693.00;4980782;28;20405;-81
2024/04/06 07:06:41;;;;;;;2.47;1.77;;;;;;;12.99;96.50;98706.44;4965056;28;20072;-81
2024/04/06 07:09:07;;;;;;;3.85;1.55;;;;;;;13.04;94.30;98689.56;4994991;28;20034;-82
2024/04/06 07:11:32;;;;;;;3.78;1.90;;;;;;;13.00;98.51;98697.31;5010682;28;20049;-82
2024/04/06 07:13:57;;;;;;;3.60;2.10;;;;;;;13.15;96.06;98697.34;5002281;28;20037;-82
2024/04/06 07:16:25;;;;;;;5.25;1.92;;;;;;;13.31;94.33;98698.13;5014840;28;20033;-83
2024/04/06 07:18:50;;;;;;;1.80;1.40;;;;;;;13.27;96.01;98697.88;4994736;28;20063;-82
2024/04/06 07:21:17;;;;;;;4.70;2.00;;;;;;;13.36;95.39;98704.31;5018854;28;20026;-83
2024/04/06 07:23:42;;;;;;;2.22;2.03;;;;;;;13.42;94.73;98687.13;5013093;28;20070;-82
2024/04/06 07:26:08;;;;;;;4.13;2.10;;;;;;;13.54;93.83;98694.91;5011616;28;20061;-83
2024/04/06 07:28:36;;;;;;;3.47;1.70;;;;;;;13.70;93.01;98691.09;4999020;28;20088;-83
2024/04/06 07:31:02;;;;;;;2.90;1.77;;;;;;;13.62;94.46;98694.34;4993841;28;20172;-83
2024/04/06 07:33:27;;;;;;;3.92;2.30;;;;;;;13.66;94.70;98698.09;4989488;28;20078;-82
2024/04/06 07:35:53;;;;;;;5.60;2.30;;;;;;;13.88;94.03;98695.88;5015848;28;20121;-82
2024/04/06 07:38:18;;;;;;;3.00;1.63;;;;;;;13.83;93.35;98692.41;4996408;28;20402;-84
2024/04/06 07:40:44;;;;;;;3.38;1.70;;;;;;;14.08;92.42;98701.19;4987324;28;20026;-84
2024/04/06 07:43:09;;;;;;;4.78;2.17;;;;;;;14.07;91.55;98683.47;4997368;28;20508;-82
2024/04/06 07:45:35;;;;;;;6.15;2.13;;;;;;;14.26;90.74;98694.41;5010087;28;20040;-83
2024/04/06 07:48:00;;;;;;;5.38;2.10;;;;;;;14.32;89.34;98695.19;5008834;28;20034;-83
2024/04/06 07:50:25;;;;;;;7.15;2.30;;;;;;;14.41;88.48;98688.97;4989198;28;20045;-83
2024/04/06 07:52:51;;;;;;;3.78;2.10;;;;;;;14.54;88.11;98701.81;5000992;28;20098;-82
2024/04/06 07:55:17;;;;;;;2.58;1.90;;;;;;;14.56;87.39;98701.53;4993533;28;20052;-83
2024/04/06 07:57:44;;;;;;;5.25;1.90;;;;;;;14.50;88.13;98679.28;4995057;28;20083;-83
2024/04/06 08:00:13;;;;;;;5.35;2.10;;;;;;;14.56;87.01;98680.03;5005656;28;20022;-82
2024/04/06 08:02:41;;;;;;;2.83;2.22;;;;;;;14.73;87.05;98693.88;4985854;28;20504;-84
2024/04/06 08:05:07;;;;;;;3.83;2.15;;;;;;;14.73;87.69;98699.25;5008952;28;20069;-82
2024/04/06 08:07:33;;;;;;;5.35;2.50;;;;;;;14.81;86.44;98691.41;4984125;28;20572;-83
2024/04/06 08:09:59;;;;;;;2.67;2.17;;;;;;;14.92;86.34;98692.94;4985528;28;20068;-83
2024/04/06 08:12:28;;;;;;;3.00;1.90;;;;;;;14.92;86.06;98684.88;5013024;28;20037;-82
2024/04/06 08:14:53;;;;;;;2.83;1.83;;;;;;;14.95;85.92;98678.16;5000673;28;20029;-83
2024/04/06 08:17:19;;;;;;;3.33;2.33;;;;;;;14.95;86.87;98681.63;5012035;28;20383;-81
2024/04/06 08:19:44;;;;;;;2.45;1.98;;;;;;;15.12;86.52;98689.28;5006140;28;20025;-82
2024/04/06 08:22:09;;;;;;;3.15;2.13;;;;;;;15.16;86.62;98671.50;5012672;28;20029;-82
2024/04/06 08:24:35;;;;;;;4.45;2.08;;;;;;;15.26;86.27;98671.44;4970350;28;20030;-82
2024/04/06 08:27:00;;;;;;;4.95;2.30;;;;;;;15.39;86.46;98675.34;5013897;28;20084;-82
2024/04/06 08:29:26;;;;;;;7.90;2.60;;;;;;;15.38;85.67;98665.66;4988145;28;20044;-82
2024/04/06 08:31:51;;;;;;;3.97;2.15;;;;;;;15.35;85.97;98650.91;4996906;28;20493;-83
2024/04/06 08:34:17;;;;;;;3.67;2.30;;;;;;;15.47;86.29;98635.22;4981041;28;20405;-83
2024/04/06 08:36:42;;;;;;;3.80;2.33;;;;;;;15.45;85.69;98641.97;4978678;28;20053;-82
2024/04/06 08:39:08;;;;;;;4.70;2.38;;;;;;;15.60;85.42;98663.31;4964210;28;20461;-83
2024/04/06 08:41:33;;;;;;;12.95;2.80;;;;;;;15.73;85.91;98662.63;5011310;28;20034;-83
2024/04/06 08:44:00;;;;;;;6.22;2.53;;;;;;;15.71;84.64;98659.44;5000881;28;20033;-83
2024/04/06 08:46:26;;;;;;;5.32;2.55;;;;;;;15.72;84.87;98675.31;5014693;28;20022;-82
2024/04/06 08:48:52;;;;;;;4.20;1.88;;;;;;;15.83;84.47;98670.63;5012715;28;20417;-83
2024/04/06 08:51:20;;;;;;;4.43;2.53;;;;;;;15.94;83.67;98674.00;4990440;28;20021;-83
2024/04/06 08:53:46;;;;;;;4.57;2.60;;;;;;;16.06;83.10;98666.28;4993971;28;20033;-83
2024/04/06 08:56:15;;;;;;;3.70;2.53;;;;;;;16.00;82.46;98656.69;5014521;28;20041;-83
2024/04/06 08:58:41;;;;;;;4.38;2.60;;;;;;;16.15;81.60;98670.75;4996122;28;20021;-82
2024/04/06 09:01:11;;;;;;;5.15;2.22;;;;;;;16.01;82.01;98642.94;4994542;28;20049;-82
2024/04/06 09:03:36;;;;;;;2.28;2.08;;;;;;;16.18;81.71;98650.53;4986845;28;20518;-83
2024/04/06 09:06:02;;;;;;;4.43;2.35;;;;;;;16.30;81.33;98650.91;4983135;28;20049;-83
2024/04/06 09:08:27;;;;;;;7.28;2.55;;;;;;;16.36;80.33;98639.78;4996716;28;20022;-83
2024/04/06 09:10:59;;;;;;;4.38;2.45;;;;;;;16.52;80.76;98653.06;4958292;28;20041;-82
2024/04/06 09:13:25;;;;;;;5.85;2.28;;;;;;;16.46;79.98;98639.66;5002089;28;20038;-82
2024/04/06 09:15:50;;;;;;;6.07;2.88;;;;;;;16.55;79.73;98629.03;5007782;28;20080;-82
2024/04/06 09:18:17;;;;;;;3.15;1.80;;;;;;;16.71;78.16;98629.63;4976903;28;20058;-82
2024/04/06 09:20:42;;;;;;;4.35;2.42;;;;;;;16.68;78.68;98643.66;4972543;28;20117;-83
2024/04/06 09:23:08;;;;;;;4.25;2.20;;;;;;;16.82;79.08;98648.00;4989172;28;20426;-82
2024/04/06 09:25:33;;;;;;;6.30;2.42;;;;;;;16.94;78.61;98661.03;4990669;28;20037;-83
2024/04/06 09:27:59;;;;;;;4.88;2.30;;;;;;;16.91;78.39;98653.53;5007449;28;20030;-83
2024/04/06 09:30:34;;;;;;;6.00;2.60;;;;;;;16.97;77.19;98647.00;4976955;28;20037;-83
2024/04/06 09:33:03;;;;;;;5.53;2.67;;;;;;;17.10;78.85;98652.41;5006703;28;20037;-82
2024/04/06 09:35:29;;;;;;;3.05;1.95;;;;;;;17.13;78.71;98653.72;5013572;28;20025;-83
2024/04/06 09:37:54;;;;;;;3.90;2.33;;;;;;;17.22;78.29;98641.16;5008942;28;20072;-82
2024/04/06 09:40:21;;;;;;;2.95;2.08;;;;;;;17.32;78.49;98634.78;4995936;28;20030;-84
2024/04/06 09:42:47;;;;;;;3.15;2.00;;;;;;;17.39;77.73;98646.78;5007657;28;20037;-83
2024/04/06 09:45:14;;;;;;;6.97;2.20;;;;;;;17.57;77.77;98645.13;4989547;28;20034;-83
2024/04/06 09:47:40;;;;;;;5.65;2.70;;;;;;;17.71;77.95;98637.88;5006187;28;20053;-83
2024/04/06 09:50:06;;;;;;;6.05;3.15;;;;;;;17.74;76.74;98635.34;5018386;28;20053;-84
2024/04/06 09:52:32;;;;;;;8.63;2.45;;;;;;;17.76;78.15;98627.75;5010184;28;20030;-83
2024/04/06 09:54:58;;;;;;;7.32;2.67;;;;;;;17.81;78.13;98621.44;4995785;28;20037;-82
2024/04/06 09:57:24;;;;;;;7.43;2.90;;;;;;;17.70;78.56;98598.47;4991109;28;20033;-83
2024/04/06 09:59:59;;;;;;;5.15;2.63;;;;;;;17.96;77.17;98624.66;5017068;28;20164;-83
2024/04/06 10:02:25;;;;;;;5.63;2.83;;;;;;;18.07;75.96;98636.03;5021885;28;20049;-83
2024/04/06 10:04:56;;;;;;;3.83;1.80;;;;;;;17.97;75.82;98630.84;5002737;28;20030;-84
2024/04/06 10:07:29;;;;;;;6.30;2.60;;;;;;;18.15;74.16;98629.13;5014404;28;20032;-83
2024/04/06 10:10:02;;;;;;;4.97;2.40;;;;;;;18.28;73.69;98618.28;4987073;28;20073;-83
2024/04/06 10:12:46;;;;;;;3.80;2.33;;;;;;;18.28;73.68;98618.28;5018096;28;20049;-83
2024/04/06 10:15:21;;;;;;;4.28;2.38;;;;;;;18.24;74.84;98619.22;5009853;28;20022;-83
2024/04/06 10:17:51;;;;;;;5.50;2.60;;;;;;;18.28;74.92;98631.00;5015677;28;20026;-83
2024/04/06 10:20:21;;;;;;;3.42;2.25;;;;;;;18.34;75.00;98629.78;5011151;28;20030;-83
2024/04/06 10:23:00;;;;;;;2.53;2.28;;;;;;;18.19;72.92;98606.63;5004153;28;20060;-84
2024/04/06 10:25:37;;;;;;;5.32;2.50;;;;;;;18.10;74.09;98597.63;5017091;28;20567;-83
2024/04/06 10:28:07;;;;;;;5.45;2.60;;;;;;;18.24;74.15;98619.22;4992190;28;20029;-83
2024/04/06 10:30:33;;;;;;;5.00;2.30;;;;;;;18.16;73.80;98603.72;4990359;28;20034;-82
2024/04/06 10:32:59;;;;;;;3.72;3.03;;;;;;;18.38;73.89;98609.97;4968899;28;20037;-83
2024/04/06 10:35:28;;;;;;;6.32;2.50;;;;;;;18.36;73.37;98608.66;4995222;28;20026;-83
2024/04/06 10:37:54;;;;;;;3.60;2.38;;;;;;;18.46;73.22;98613.88;4989595;28;20367;-84
2024/04/06 10:40:27;;;;;;;6.95;3.03;;;;;;;18.53;74.44;98609.66;5001794;28;20413;-84
2024/04/06 10:42:53;;;;;;;3.42;2.10;;;;;;;18.60;73.68;98606.53;5016164;28;20097;-83
2024/04/06 10:45:19;;;;;;;3.13;2.30;;;;;;;18.72;72.97;98606.75;5010761;28;20041;-83
2024/04/06 10:47:44;;;;;;;4.78;2.38;;;;;;;18.71;72.54;98597.06;5016852;28;20363;-83
2024/04/06 10:50:10;;;;;;;3.17;2.45;;;;;;;18.84;71.02;98590.00;4961868;28;20442;-84
2024/04/06 10:52:36;;;;;;;5.43;2.20;;;;;;;18.93;72.52;98601.66;5017266;28;20099;-83
2024/04/06 10:55:09;;;;;;;3.90;2.00;;;;;;;18.94;71.74;98601.34;5015840;28;20041;-84
2024/04/06 10:57:36;;;;;;;5.97;2.50;;;;;;;18.99;72.04;98603.94;5007585;28;20485;-83
2024/04/06 11:00:08;;;;;;;5.75;2.10;;;;;;;18.96;70.85;98606.47;4983402;28;20057;-83
2024/04/06 11:02:36;;;;;;;3.55;2.20;;;;;;;18.89;72.47;98592.56;4987301;28;20041;-83
2024/04/06 11:05:02;;;;;;;6.82;2.67;;;;;;;18.97;71.00;98597.22;5000120;28;20057;-83
2024/04/06 11:07:27;;;;;;;3.47;2.40;;;;;;;19.04;69.88;98592.19;5009638;28;20445;-82
2024/04/06 11:09:53;;;;;;;4.18;2.25;;;;;;;19.17;70.90;98611.06;5003214;28;20053;-83
2024/04/06 11:12:18;;;;;;;5.88;2.25;;;;;;;19.11;71.39;98612.28;5017639;28;20108;-83
2024/04/06 11:14:49;;;;;;;4.05;2.45;;;;;;;19.14;70.15;98603.56;4984716;28;20037;-82
2024/04/06 11:17:14;;;;;;;3.85;2.55;;;;;;;19.41;68.46;98598.00;5015077;28;20033;-82
2024/04/06 11:19:41;;;;;;;3.08;2.05;;;;;;;19.33;70.20;98601.41;5016059;28;20104;-82
2024/04/06 11:22:06;;;;;;;6.22;2.28;;;;;;;19.38;68.96;98595.91;5016009;28;20433;-82
2024/04/06 11:24:32;;;;;;;4.10;2.00;;;;;;;19.48;67.72;98594.03;4980372;28;20056;-82
2024/04/06 11:27:07;;;;;;;3.78;2.30;;;;;;;19.44;70.34;98575.69;4994078;28;20069;-83
2024/04/06 11:29:33;;;;;;;;;;;;;;;19.54;68.58;98587.38;4980649;28;20034;-82